createdAt,value
2023-08-23T00:00:39.717Z,861.01
2023-08-23T00:01:39.740Z,860.99
2023-08-23T00:02:39.748Z,861.00
2023-08-23T00:03:39.730Z,861.01
2023-08-23T00:04:39.664Z,861.02
2023-08-23T00:05:39.628Z,861.01
2023-08-23T00:06:39.628Z,860.97
2023-08-23T00:07:39.612Z,860.99
2023-08-23T00:08:39.610Z,860.98
2023-08-23T00:09:39.587Z,860.97
2023-08-23T00:10:39.616Z,860.95
2023-08-23T00:11:39.565Z,860.97
2023-08-23T00:12:39.548Z,860.96
2023-08-23T00:13:39.546Z,860.96
2023-08-23T00:14:39.533Z,860.95
2023-08-23T00:15:39.540Z,860.95
2023-08-23T00:16:39.527Z,860.96
2023-08-23T00:17:39.512Z,860.94
2023-08-23T00:18:39.492Z,860.87
2023-08-23T00:19:39.505Z,860.90
2023-08-23T00:20:39.476Z,860.87
2023-08-23T00:21:39.456Z,860.87
2023-08-23T00:22:39.444Z,860.89
2023-08-23T00:23:39.433Z,860.89
2023-08-23T00:24:39.424Z,860.88
2023-08-23T00:25:39.430Z,860.89
2023-08-23T00:26:39.428Z,860.87
2023-08-23T00:27:39.414Z,860.85
2023-08-23T00:28:39.384Z,860.84
2023-08-23T00:29:39.393Z,860.84
2023-08-23T00:30:39.427Z,860.84
2023-08-23T00:31:39.355Z,860.80
2023-08-23T00:32:39.428Z,860.82
2023-08-23T00:33:39.484Z,860.81
2023-08-23T00:34:39.314Z,860.85
2023-08-23T00:35:39.320Z,860.84
2023-08-23T00:36:39.299Z,860.82
2023-08-23T00:37:39.279Z,860.83
2023-08-23T00:38:39.289Z,860.84
2023-08-23T00:39:39.279Z,860.82
2023-08-23T00:40:39.247Z,860.77
2023-08-23T00:41:39.240Z,860.76
2023-08-23T00:42:39.259Z,860.77
2023-08-23T00:43:39.211Z,860.74
2023-08-23T00:44:39.232Z,860.76
2023-08-23T00:45:39.218Z,860.73
2023-08-23T00:46:39.201Z,860.75
2023-08-23T00:47:39.230Z,860.77
2023-08-23T00:48:39.182Z,860.74
2023-08-23T00:49:39.163Z,860.76
2023-08-23T00:50:39.150Z,860.77
2023-08-23T00:51:39.145Z,860.79
2023-08-23T00:52:52.099Z,860.78
2023-08-23T00:53:40.106Z,860.78
2023-08-23T00:54:39.103Z,860.80
2023-08-23T00:55:39.094Z,860.78
2023-08-23T00:56:39.078Z,860.74
2023-08-23T00:57:39.063Z,860.76
2023-08-23T00:58:39.078Z,860.75
2023-08-23T00:59:39.043Z,860.79
2023-08-23T01:00:39.031Z,860.79
2023-08-23T01:01:39.074Z,860.75
2023-08-23T01:02:39.031Z,860.76
2023-08-23T01:03:38.997Z,860.80
2023-08-23T01:04:39.001Z,860.76
2023-08-23T01:05:39.028Z,860.75
2023-08-23T01:06:38.975Z,860.76
2023-08-23T01:07:38.947Z,860.68
2023-08-23T01:08:38.961Z,860.67
2023-08-23T01:09:38.931Z,860.67
2023-08-23T01:10:38.920Z,860.72
2023-08-23T01:11:38.979Z,860.68
2023-08-23T01:12:38.895Z,860.64
2023-08-23T01:13:38.899Z,860.66
2023-08-23T01:14:38.904Z,860.68
2023-08-23T01:15:38.872Z,860.72
2023-08-23T01:16:38.939Z,860.68
2023-08-23T01:17:38.882Z,860.67
2023-08-23T01:18:38.846Z,860.69
2023-08-23T01:19:38.834Z,860.71
2023-08-23T01:20:38.809Z,860.70
2023-08-23T01:21:38.817Z,860.70
2023-08-23T01:22:38.804Z,860.72
2023-08-23T01:23:38.777Z,860.72
2023-08-23T01:24:38.765Z,860.70
2023-08-23T01:25:38.756Z,860.72
2023-08-23T01:26:38.745Z,860.70
2023-08-23T01:27:54.563Z,860.67
2023-08-23T01:28:39.732Z,860.67
2023-08-23T01:29:38.709Z,860.63
2023-08-23T01:30:38.745Z,860.66
2023-08-23T01:31:38.722Z,860.66
2023-08-23T01:32:38.713Z,860.69
2023-08-23T01:33:38.682Z,860.64
2023-08-23T01:34:38.652Z,860.66
2023-08-23T01:35:38.642Z,860.64
2023-08-23T01:36:38.649Z,860.67
2023-08-23T01:37:38.623Z,860.61
2023-08-23T01:38:38.610Z,860.64
2023-08-23T01:39:38.603Z,860.66
2023-08-23T01:40:38.602Z,860.68
2023-08-23T01:41:38.594Z,860.70
2023-08-23T01:42:38.567Z,860.68
2023-08-23T01:43:38.569Z,860.70
2023-08-23T01:44:38.550Z,860.72
2023-08-23T01:45:38.572Z,860.69
2023-08-23T01:46:38.575Z,860.69
2023-08-23T01:47:38.563Z,860.71
2023-08-23T01:48:38.499Z,860.70
2023-08-23T01:49:38.492Z,860.68
2023-08-23T01:50:38.480Z,860.68
2023-08-23T01:51:38.479Z,860.65
2023-08-23T01:52:38.457Z,860.59
2023-08-23T01:53:38.455Z,860.61
2023-08-23T01:54:38.435Z,860.61
2023-08-23T01:55:38.422Z,860.63
2023-08-23T01:56:38.432Z,860.54
2023-08-23T01:57:38.414Z,860.56
2023-08-23T01:58:38.399Z,860.59
2023-08-23T01:59:38.383Z,860.54
2023-08-23T02:00:38.386Z,860.55
2023-08-23T02:01:38.388Z,860.58
2023-08-23T02:02:38.421Z,860.58
2023-08-23T02:03:38.416Z,860.58
2023-08-23T02:04:38.327Z,860.57
2023-08-23T02:05:38.331Z,860.54
2023-08-23T02:06:38.309Z,860.56
2023-08-23T02:07:38.293Z,860.58
2023-08-23T02:08:38.299Z,860.58
2023-08-23T02:09:38.289Z,860.55
2023-08-23T02:10:38.290Z,860.55
2023-08-23T02:11:38.249Z,860.60
2023-08-23T02:12:38.243Z,860.59
2023-08-23T02:13:38.243Z,860.54
2023-08-23T02:14:38.212Z,860.58
2023-08-23T02:15:38.261Z,860.57
2023-08-23T02:16:38.213Z,860.59
2023-08-23T02:17:38.218Z,860.57
2023-08-23T02:18:38.227Z,860.56
2023-08-23T02:19:38.161Z,860.54
2023-08-23T02:20:38.166Z,860.55
2023-08-23T02:21:38.143Z,860.52
2023-08-23T02:22:38.146Z,860.52
2023-08-23T02:23:38.131Z,860.54
2023-08-23T02:24:38.112Z,860.51
2023-08-23T02:25:38.089Z,860.52
2023-08-23T02:26:38.097Z,860.48
2023-08-23T02:27:38.081Z,860.52
2023-08-23T02:28:38.083Z,860.51
2023-08-23T02:29:38.047Z,860.51
2023-08-23T02:30:38.049Z,860.54
2023-08-23T02:31:38.085Z,860.49
2023-08-23T02:32:38.071Z,860.54
2023-08-23T02:33:38.009Z,860.53
2023-08-23T02:34:38.018Z,860.51
2023-08-23T02:35:37.987Z,860.50
2023-08-23T02:36:37.972Z,860.51
2023-08-23T02:37:37.959Z,860.49
2023-08-23T02:38:38.005Z,860.49
2023-08-23T02:39:37.945Z,860.52
2023-08-23T02:40:37.934Z,860.51
2023-08-23T02:41:37.929Z,860.49
2023-08-23T02:42:37.912Z,860.48
2023-08-23T02:43:37.917Z,860.53
2023-08-23T02:44:37.902Z,860.53
2023-08-23T02:45:37.875Z,860.50
2023-08-23T02:46:37.898Z,860.55
2023-08-23T02:47:37.871Z,860.57
2023-08-23T02:48:37.846Z,860.58
2023-08-23T02:49:37.865Z,860.58
2023-08-23T02:50:37.844Z,860.57
2023-08-23T02:51:37.808Z,860.56
2023-08-23T02:52:37.799Z,860.53
2023-08-23T02:53:37.789Z,860.52
2023-08-23T02:54:37.784Z,860.57
2023-08-23T02:55:37.837Z,860.56
2023-08-23T02:56:37.776Z,860.57
2023-08-23T02:57:37.788Z,860.53
2023-08-23T02:58:37.734Z,860.56
2023-08-23T02:59:37.738Z,860.56
2023-08-23T03:00:37.761Z,860.51
2023-08-23T03:01:37.716Z,860.48
2023-08-23T03:02:37.753Z,860.50
2023-08-23T03:03:37.679Z,860.51
2023-08-23T03:04:37.672Z,860.53
2023-08-23T03:05:37.667Z,860.45
2023-08-23T03:06:37.688Z,860.56
2023-08-23T03:07:37.637Z,860.45
2023-08-23T03:08:37.638Z,860.46
2023-08-23T03:09:37.617Z,860.52
2023-08-23T03:10:37.606Z,860.50
2023-08-23T03:11:37.600Z,860.51
2023-08-23T03:12:37.585Z,860.49
2023-08-23T03:13:37.582Z,860.44
2023-08-23T03:14:37.575Z,860.39
2023-08-23T03:15:37.552Z,860.46
2023-08-23T03:16:37.606Z,860.44
2023-08-23T03:17:37.587Z,860.49
2023-08-23T03:18:37.532Z,860.50
2023-08-23T03:19:37.508Z,860.48
2023-08-23T03:20:37.492Z,860.46
2023-08-23T03:21:37.480Z,860.48
2023-08-23T03:22:37.514Z,860.50
2023-08-23T03:23:37.478Z,860.50
2023-08-23T03:24:37.474Z,860.50
2023-08-23T03:25:37.447Z,860.51
2023-08-23T03:26:37.435Z,860.50
2023-08-23T03:27:37.418Z,860.52
2023-08-23T03:28:37.432Z,860.52
2023-08-23T03:29:37.415Z,860.52
2023-08-23T03:30:37.465Z,860.47
2023-08-23T03:31:37.393Z,860.47
2023-08-23T03:32:37.406Z,860.46
2023-08-23T03:33:37.356Z,860.48
2023-08-23T03:34:37.347Z,860.48
2023-08-23T03:35:37.354Z,860.47
2023-08-23T03:36:37.323Z,860.48
2023-08-23T03:37:37.310Z,860.50
2023-08-23T03:38:37.324Z,860.43
2023-08-23T03:39:37.290Z,860.46
2023-08-23T03:40:37.302Z,860.44
2023-08-23T03:41:37.285Z,860.47
2023-08-23T03:42:37.265Z,860.42
2023-08-23T03:43:37.243Z,860.45
2023-08-23T03:44:37.259Z,860.44
2023-08-23T03:45:37.224Z,860.42
2023-08-23T03:46:37.256Z,860.41
2023-08-23T03:47:37.217Z,860.45
2023-08-23T03:48:37.193Z,860.45
2023-08-23T03:49:37.237Z,860.43
2023-08-23T03:50:37.170Z,860.42
2023-08-23T03:51:37.163Z,860.39
2023-08-23T03:52:37.159Z,860.38
2023-08-23T03:53:37.158Z,860.33
2023-08-23T03:54:37.152Z,860.35
2023-08-23T03:55:37.127Z,860.33
2023-08-23T03:56:37.104Z,860.34
2023-08-23T03:57:37.088Z,860.33
2023-08-23T03:58:37.081Z,860.35
2023-08-23T03:59:37.090Z,860.33
2023-08-23T04:00:37.061Z,860.29
2023-08-23T04:01:37.111Z,860.36
2023-08-23T04:02:37.065Z,860.33
2023-08-23T04:03:37.185Z,860.35
2023-08-23T04:04:37.108Z,860.34
2023-08-23T04:05:37.006Z,860.37
2023-08-23T04:06:36.995Z,860.33
2023-08-23T04:07:36.992Z,860.37
2023-08-23T04:08:36.980Z,860.35
2023-08-23T04:09:37.807Z,860.33
2023-08-23T04:10:36.978Z,860.34
2023-08-23T04:11:36.953Z,860.36
2023-08-23T04:12:36.932Z,860.35
2023-08-23T04:13:36.933Z,860.36
2023-08-23T04:14:36.947Z,860.36
2023-08-23T04:15:37.391Z,860.36
2023-08-23T04:16:36.897Z,860.33
2023-08-23T04:17:36.918Z,860.35
2023-08-23T04:18:36.865Z,860.36
2023-08-23T04:19:36.861Z,860.36
2023-08-23T04:20:36.840Z,860.36
2023-08-23T04:21:36.825Z,860.36
2023-08-23T04:22:36.814Z,860.33
2023-08-23T04:23:36.819Z,860.36
2023-08-23T04:24:37.380Z,860.35
2023-08-23T04:25:36.782Z,860.37
2023-08-23T04:26:36.833Z,860.31
2023-08-23T04:27:36.779Z,860.32
2023-08-23T04:28:36.764Z,860.33
2023-08-23T04:29:36.741Z,860.34
2023-08-23T04:30:36.725Z,860.31
2023-08-23T04:31:36.732Z,860.28
2023-08-23T04:32:36.772Z,860.27
2023-08-23T04:33:36.767Z,860.28
2023-08-23T04:34:36.687Z,860.28
2023-08-23T04:35:36.690Z,860.29
2023-08-23T04:36:36.660Z,860.29
2023-08-23T04:37:36.661Z,860.33
2023-08-23T04:38:36.646Z,860.32
2023-08-23T04:39:36.637Z,860.31
2023-08-23T04:40:36.620Z,860.33
2023-08-23T04:41:36.629Z,860.29
2023-08-23T04:42:36.633Z,860.34
2023-08-23T04:43:36.586Z,860.37
2023-08-23T04:44:36.572Z,860.34
2023-08-23T04:45:36.637Z,860.38
2023-08-23T04:46:36.574Z,860.38
2023-08-23T04:47:36.624Z,860.42
2023-08-23T04:48:36.536Z,860.41
2023-08-23T04:49:36.528Z,860.46
2023-08-23T04:50:36.509Z,860.49
2023-08-23T04:51:36.503Z,860.47
2023-08-23T04:52:36.513Z,860.44
2023-08-23T04:53:36.485Z,860.47
2023-08-23T04:54:36.467Z,860.49
2023-08-23T04:55:36.452Z,860.49
2023-08-23T04:56:36.443Z,860.46
2023-08-23T04:57:36.437Z,860.47
2023-08-23T04:58:36.468Z,860.48
2023-08-23T04:59:36.426Z,860.43
2023-08-23T05:00:36.406Z,860.45
2023-08-23T05:01:36.445Z,860.45
2023-08-23T05:02:36.425Z,860.44
2023-08-23T05:03:36.370Z,860.44
2023-08-23T05:04:36.364Z,860.47
2023-08-23T05:05:36.376Z,860.47
2023-08-23T05:06:36.334Z,860.48
2023-08-23T05:07:36.332Z,860.46
2023-08-23T05:08:36.334Z,860.48
2023-08-23T05:09:36.300Z,860.44
2023-08-23T05:10:36.309Z,860.49
2023-08-23T05:11:36.293Z,860.47
2023-08-23T05:12:36.265Z,860.49
2023-08-23T05:13:36.259Z,860.44
2023-08-23T05:14:36.280Z,860.46
2023-08-23T05:15:36.247Z,860.43
2023-08-23T05:16:36.242Z,860.47
2023-08-23T05:17:38.920Z,860.46
2023-08-23T05:18:36.208Z,860.42
2023-08-23T05:19:37.430Z,860.48
2023-08-23T05:20:36.186Z,860.48
2023-08-23T05:21:36.181Z,860.49
2023-08-23T05:22:36.157Z,860.48
2023-08-23T05:23:36.150Z,860.50
2023-08-23T05:24:36.141Z,860.53
2023-08-23T05:25:36.141Z,860.55
2023-08-23T05:26:36.121Z,860.59
2023-08-23T05:27:36.109Z,860.53
2023-08-23T05:28:36.107Z,860.53
2023-08-23T05:29:36.080Z,860.55
2023-08-23T05:30:36.106Z,860.57
2023-08-23T05:31:36.136Z,860.57
2023-08-23T05:32:36.070Z,860.55
2023-08-23T05:33:36.051Z,860.51
2023-08-23T05:34:36.024Z,860.58
2023-08-23T05:35:36.015Z,860.58
2023-08-23T05:36:36.009Z,860.56
2023-08-23T05:37:35.990Z,860.56
2023-08-23T05:38:36.016Z,860.57
2023-08-23T05:39:37.610Z,860.60
2023-08-23T05:40:35.973Z,860.62
2023-08-23T05:41:35.956Z,860.57
2023-08-23T05:42:35.941Z,860.59
2023-08-23T05:43:35.932Z,860.57
2023-08-23T05:44:35.918Z,860.62
2023-08-23T05:45:35.939Z,860.63
2023-08-23T05:46:36.159Z,860.64
2023-08-23T05:47:35.918Z,860.57
2023-08-23T05:48:35.875Z,860.59
2023-08-23T05:49:35.860Z,860.58
2023-08-23T05:50:35.869Z,860.58
2023-08-23T05:51:35.839Z,860.61
2023-08-23T05:52:35.845Z,860.66
2023-08-23T05:53:35.822Z,860.65
2023-08-23T05:54:35.804Z,860.67
2023-08-23T05:55:35.800Z,860.63
2023-08-23T05:56:35.809Z,860.64
2023-08-23T05:57:35.781Z,860.67
2023-08-23T05:58:35.781Z,860.62
2023-08-23T05:59:35.757Z,860.66
2023-08-23T06:00:35.743Z,860.65
2023-08-23T06:01:35.741Z,860.65
2023-08-23T06:02:35.776Z,860.66
2023-08-23T06:03:35.739Z,860.63
2023-08-23T06:04:35.701Z,860.65
2023-08-23T06:05:35.707Z,860.70
2023-08-23T06:06:35.758Z,860.62
2023-08-23T06:07:35.667Z,860.61
2023-08-23T06:08:35.657Z,860.64
2023-08-23T06:09:35.641Z,860.65
2023-08-23T06:10:35.631Z,860.65
2023-08-23T06:11:35.639Z,860.68
2023-08-23T06:12:35.618Z,860.65
2023-08-23T06:13:35.602Z,860.68
2023-08-23T06:14:35.592Z,860.67
2023-08-23T06:15:35.589Z,860.69
2023-08-23T06:16:35.610Z,860.67
2023-08-23T06:17:35.563Z,860.69
2023-08-23T06:18:35.586Z,860.69
2023-08-23T06:19:35.552Z,860.68
2023-08-23T06:20:35.525Z,860.69
2023-08-23T06:21:35.515Z,860.64
2023-08-23T06:22:35.512Z,860.71
2023-08-23T06:23:35.516Z,860.66
2023-08-23T06:24:35.493Z,860.65
2023-08-23T06:25:35.498Z,860.67
2023-08-23T06:26:35.469Z,860.65
2023-08-23T06:27:35.450Z,860.62
2023-08-23T06:28:35.449Z,860.60
2023-08-23T06:29:35.437Z,860.64
2023-08-23T06:30:35.462Z,860.64
2023-08-23T06:31:35.417Z,860.67
2023-08-23T06:32:35.427Z,860.68
2023-08-23T06:33:35.387Z,860.69
2023-08-23T06:34:35.416Z,860.69
2023-08-23T06:35:35.370Z,860.67
2023-08-23T06:36:35.408Z,860.68
2023-08-23T06:37:35.378Z,860.68
2023-08-23T06:38:35.452Z,860.59
2023-08-23T06:39:35.318Z,860.64
2023-08-23T06:40:35.308Z,860.62
2023-08-23T06:41:35.306Z,860.63
2023-08-23T06:42:35.301Z,860.59
2023-08-23T06:43:35.269Z,860.56
2023-08-23T06:44:35.260Z,860.56
2023-08-23T06:45:35.262Z,860.59
2023-08-23T06:46:35.257Z,860.58
2023-08-23T06:47:35.272Z,860.59
2023-08-23T06:48:35.217Z,860.50
2023-08-23T06:49:35.194Z,860.52
2023-08-23T06:50:35.263Z,860.53
2023-08-23T06:51:35.177Z,860.51
2023-08-23T06:52:35.172Z,860.49
2023-08-23T06:53:36.617Z,860.46
2023-08-23T06:54:35.159Z,860.45
2023-08-23T06:55:35.131Z,860.48
2023-08-23T06:56:35.116Z,860.50
2023-08-23T06:57:35.110Z,860.50
2023-08-23T06:58:35.105Z,860.49
2023-08-23T06:59:35.089Z,860.49
2023-08-23T07:00:35.117Z,860.48
2023-08-23T07:01:35.065Z,860.52
2023-08-23T07:02:35.135Z,860.48
2023-08-23T07:03:35.205Z,860.50
2023-08-23T07:04:35.071Z,860.51
2023-08-23T07:05:35.105Z,860.48
2023-08-23T07:06:35.049Z,860.50
2023-08-23T07:07:35.022Z,860.42
2023-08-23T07:08:34.994Z,860.44
2023-08-23T07:09:35.002Z,860.44
2023-08-23T07:10:34.977Z,860.44
2023-08-23T07:11:34.962Z,860.43
2023-08-23T07:12:34.947Z,860.43
2023-08-23T07:13:34.949Z,860.43
2023-08-23T07:14:34.977Z,860.41
2023-08-23T07:15:34.928Z,860.45
2023-08-23T07:16:34.953Z,860.43
2023-08-23T07:17:34.940Z,860.47
2023-08-23T07:18:34.891Z,860.46
2023-08-23T07:19:34.875Z,860.42
2023-08-23T07:20:34.882Z,860.41
2023-08-23T07:21:34.853Z,860.44
2023-08-23T07:22:34.873Z,860.44
2023-08-23T07:23:34.837Z,860.43
2023-08-23T07:24:34.828Z,860.43
2023-08-23T07:25:34.827Z,860.44
2023-08-23T07:26:34.798Z,860.48
2023-08-23T07:27:34.792Z,860.46
2023-08-23T07:28:34.782Z,860.49
2023-08-23T07:29:34.773Z,860.42
2023-08-23T07:30:34.802Z,860.43
2023-08-23T07:31:34.748Z,860.44
2023-08-23T07:32:34.756Z,860.46
2023-08-23T07:33:34.729Z,860.44
2023-08-23T07:34:34.733Z,860.44
2023-08-23T07:35:34.716Z,860.43
2023-08-23T07:36:34.690Z,860.47
2023-08-23T07:37:34.692Z,860.43
2023-08-23T07:38:34.707Z,860.45
2023-08-23T07:39:34.657Z,860.46
2023-08-23T07:40:34.675Z,860.47
2023-08-23T07:41:34.644Z,860.48
2023-08-23T07:42:34.655Z,860.51
2023-08-23T07:43:34.643Z,860.46
2023-08-23T07:44:34.634Z,860.49
2023-08-23T07:45:34.666Z,860.47
2023-08-23T07:46:34.635Z,860.47
2023-08-23T07:47:34.579Z,860.46
2023-08-23T07:48:34.604Z,860.45
2023-08-23T07:49:34.554Z,860.49
2023-08-23T07:50:34.539Z,860.47
2023-08-23T07:51:34.551Z,860.41
2023-08-23T07:52:34.526Z,860.45
2023-08-23T07:53:34.518Z,860.44
2023-08-23T07:54:34.533Z,860.51
2023-08-23T07:55:34.489Z,860.44
2023-08-23T07:56:34.480Z,860.46
2023-08-23T07:57:34.497Z,860.47
2023-08-23T07:58:34.460Z,860.44
2023-08-23T07:59:34.483Z,860.44
2023-08-23T08:00:34.436Z,860.46
2023-08-23T08:01:34.470Z,860.41
2023-08-23T08:02:34.484Z,860.40
2023-08-23T08:03:34.438Z,860.46
2023-08-23T08:04:34.949Z,860.46
2023-08-23T08:05:34.390Z,860.46
2023-08-23T08:06:34.396Z,860.49
2023-08-23T08:08:01.376Z,860.47
2023-08-23T08:08:35.356Z,860.49
2023-08-23T08:09:34.353Z,860.43
2023-08-23T08:10:34.352Z,860.47
2023-08-23T08:11:34.318Z,860.48
2023-08-23T08:12:34.311Z,860.49
2023-08-23T08:13:34.303Z,860.46
2023-08-23T08:14:34.296Z,860.46
2023-08-23T08:15:34.288Z,860.49
2023-08-23T08:16:34.326Z,860.49
2023-08-23T08:18:34.260Z,860.48
2023-08-23T08:19:34.247Z,860.42
2023-08-23T08:20:34.232Z,860.42
2023-08-23T08:21:34.210Z,860.42
2023-08-23T08:22:34.200Z,860.47
2023-08-23T08:23:34.214Z,860.42
2023-08-23T08:24:34.183Z,860.43
2023-08-23T08:25:34.203Z,860.45
2023-08-23T08:26:34.189Z,860.43
2023-08-23T08:27:34.146Z,860.47
2023-08-23T08:28:34.142Z,860.42
2023-08-23T08:29:34.127Z,860.46
2023-08-23T08:30:34.126Z,860.44
2023-08-23T08:31:34.142Z,860.42
2023-08-23T08:32:34.202Z,860.40
2023-08-23T08:33:34.081Z,860.43
2023-08-23T08:34:34.083Z,860.41
2023-08-23T08:35:34.057Z,860.41
2023-08-23T08:36:34.052Z,860.40
2023-08-23T08:37:34.048Z,860.42
2023-08-23T08:38:34.032Z,860.36
2023-08-23T08:39:34.038Z,860.38
2023-08-23T08:40:34.002Z,860.38
2023-08-23T08:41:33.993Z,860.39
2023-08-23T08:42:34.007Z,860.35
2023-08-23T08:43:33.983Z,860.36
2023-08-23T08:44:33.961Z,860.37
2023-08-23T08:45:33.978Z,860.35
2023-08-23T08:46:33.944Z,860.39
2023-08-23T08:47:33.969Z,860.38
2023-08-23T08:48:33.918Z,860.34
2023-08-23T08:49:33.908Z,860.36
2023-08-23T08:50:33.921Z,860.38
2023-08-23T08:51:33.889Z,860.34
2023-08-23T08:52:33.873Z,860.36
2023-08-23T08:53:33.888Z,860.38
2023-08-23T08:54:33.855Z,860.37
2023-08-23T08:55:33.845Z,860.41
2023-08-23T08:56:33.849Z,860.43
2023-08-23T08:57:33.824Z,860.43
2023-08-23T08:58:33.871Z,860.37
2023-08-23T08:59:33.820Z,860.38
2023-08-23T09:00:33.922Z,860.38
2023-08-23T09:01:33.861Z,860.36
2023-08-23T09:02:33.762Z,860.41
2023-08-23T09:03:33.817Z,860.38
2023-08-23T09:04:33.744Z,860.44
2023-08-23T09:05:33.732Z,860.43
2023-08-23T09:06:33.727Z,860.41
2023-08-23T09:07:33.719Z,860.42
2023-08-23T09:08:33.700Z,860.39
2023-08-23T09:09:33.703Z,860.38
2023-08-23T09:10:33.676Z,860.36
2023-08-23T09:11:33.668Z,860.38
2023-08-23T09:12:33.657Z,860.37
2023-08-23T09:13:33.680Z,860.36
2023-08-23T09:14:33.672Z,860.34
2023-08-23T09:15:33.669Z,860.30
2023-08-23T09:16:33.618Z,860.31
2023-08-23T09:17:33.659Z,860.28
2023-08-23T09:18:33.588Z,860.36
2023-08-23T09:19:33.578Z,860.38
2023-08-23T09:20:33.583Z,860.37
2023-08-23T09:21:33.561Z,860.38
2023-08-23T09:22:33.546Z,860.39
2023-08-23T09:23:33.535Z,860.41
2023-08-23T09:24:33.528Z,860.35
2023-08-23T09:25:33.521Z,860.37
2023-08-23T09:26:33.516Z,860.38
2023-08-23T09:27:37.308Z,860.32
2023-08-23T09:28:33.480Z,860.42
2023-08-23T09:29:33.480Z,860.42
2023-08-23T09:30:33.509Z,860.44
2023-08-23T09:31:33.470Z,860.40
2023-08-23T09:32:33.544Z,860.45
2023-08-23T09:33:33.429Z,860.44
2023-08-23T09:34:33.429Z,860.44
2023-08-23T09:35:33.420Z,860.44
2023-08-23T09:36:33.394Z,860.42
2023-08-23T09:37:33.381Z,860.46
2023-08-23T09:38:33.374Z,860.42
2023-08-23T09:39:33.397Z,860.42
2023-08-23T09:40:33.367Z,860.34
2023-08-23T09:41:33.601Z,860.34
2023-08-23T09:42:33.348Z,860.38
2023-08-23T09:43:33.321Z,860.37
2023-08-23T09:44:33.360Z,860.35
2023-08-23T09:45:33.308Z,860.35
2023-08-23T09:46:33.433Z,860.36
2023-08-23T09:47:33.418Z,860.35
2023-08-23T09:48:33.300Z,860.31
2023-08-23T09:49:33.257Z,860.33
2023-08-23T09:50:33.252Z,860.33
2023-08-23T09:51:33.254Z,860.35
2023-08-23T09:52:33.227Z,860.32
2023-08-23T09:53:33.215Z,860.31
2023-08-23T09:54:43.708Z,860.30
2023-08-23T09:55:34.206Z,860.32
2023-08-23T09:56:33.182Z,860.32
2023-08-23T09:57:33.175Z,860.30
2023-08-23T09:58:33.172Z,860.32
2023-08-23T09:59:33.150Z,860.31
2023-08-23T10:00:33.158Z,860.28
2023-08-23T10:01:34.027Z,860.29
2023-08-23T10:02:33.226Z,860.31
2023-08-23T10:03:33.136Z,860.30
2023-08-23T10:04:33.097Z,860.31
2023-08-23T10:05:33.102Z,860.32
2023-08-23T10:06:33.078Z,860.26
2023-08-23T10:07:33.059Z,860.26
2023-08-23T10:08:33.047Z,860.25
2023-08-23T10:09:33.049Z,860.27
2023-08-23T10:10:33.026Z,860.28
2023-08-23T10:11:42.069Z,860.27
2023-08-23T10:12:34.005Z,860.26
2023-08-23T10:13:33.003Z,860.25
2023-08-23T10:14:32.980Z,860.24
2023-08-23T10:15:33.030Z,860.21
2023-08-23T10:16:32.985Z,860.20
2023-08-23T10:17:32.970Z,860.24
2023-08-23T10:18:32.980Z,860.26
2023-08-23T10:19:32.935Z,860.19
2023-08-23T10:20:32.930Z,860.22
2023-08-23T10:21:32.918Z,860.13
2023-08-23T10:22:36.014Z,860.18
2023-08-23T10:23:32.941Z,860.19
2023-08-23T10:24:32.978Z,860.21
2023-08-23T10:25:32.872Z,860.19
2023-08-23T10:26:32.909Z,860.19
2023-08-23T10:27:32.917Z,860.19
2023-08-23T10:28:34.246Z,860.22
2023-08-23T10:29:32.905Z,860.25
2023-08-23T10:30:32.810Z,860.22
2023-08-23T10:31:32.815Z,860.19
2023-08-23T10:32:32.802Z,860.24
2023-08-23T10:33:32.927Z,860.24
2023-08-23T10:34:32.788Z,860.22
2023-08-23T10:35:32.762Z,860.23
2023-08-23T10:36:32.751Z,860.25
2023-08-23T10:37:32.747Z,860.19
2023-08-23T10:38:32.714Z,860.18
2023-08-23T10:39:32.715Z,860.14
2023-08-23T10:40:32.700Z,860.17
2023-08-23T10:41:32.692Z,860.14
2023-08-23T10:42:32.676Z,860.14
2023-08-23T10:43:32.677Z,860.19
2023-08-23T10:44:32.653Z,860.16
2023-08-23T10:45:32.642Z,860.17
2023-08-23T10:46:32.675Z,860.13
2023-08-23T10:47:32.685Z,860.18
2023-08-23T10:48:32.637Z,860.23
2023-08-23T10:49:32.617Z,860.19
2023-08-23T10:50:32.612Z,860.19
2023-08-23T10:51:32.577Z,860.17
2023-08-23T10:52:32.565Z,860.18
2023-08-23T10:53:32.558Z,860.16
2023-08-23T10:54:32.542Z,860.16
2023-08-23T10:55:32.574Z,860.15
2023-08-23T10:56:32.526Z,860.13
2023-08-23T10:57:32.520Z,860.07
2023-08-23T10:58:32.498Z,860.08
2023-08-23T10:59:32.488Z,860.06
2023-08-23T11:00:32.488Z,860.01
2023-08-23T11:01:32.546Z,860.07
2023-08-23T11:02:32.516Z,860.05
2023-08-23T11:03:32.473Z,860.06
2023-08-23T11:04:32.442Z,860.10
2023-08-23T11:05:32.468Z,860.09
2023-08-23T11:06:32.451Z,860.04
2023-08-23T11:07:32.418Z,860.02
2023-08-23T11:08:32.536Z,860.03
2023-08-23T11:09:32.394Z,860.02
2023-08-23T11:10:32.401Z,860.02
2023-08-23T11:11:32.361Z,859.99
2023-08-23T11:12:32.357Z,860.03
2023-08-23T11:13:32.335Z,860.03
2023-08-23T11:14:32.328Z,860.02
2023-08-23T11:15:32.328Z,859.99
2023-08-23T11:16:32.331Z,860.02
2023-08-23T11:17:32.293Z,860.00
2023-08-23T11:18:32.290Z,860.02
2023-08-23T11:19:32.279Z,860.05
2023-08-23T11:20:32.307Z,860.06
2023-08-23T11:21:32.256Z,860.03
2023-08-23T11:22:32.271Z,860.03
2023-08-23T11:23:32.232Z,860.04
2023-08-23T11:24:32.235Z,860.06
2023-08-23T11:25:32.221Z,860.07
2023-08-23T11:26:32.208Z,860.08
2023-08-23T11:27:32.186Z,860.00
2023-08-23T11:28:32.188Z,859.98
2023-08-23T11:29:32.175Z,859.96
2023-08-23T11:30:32.173Z,860.01
2023-08-23T11:31:32.189Z,859.94
2023-08-23T11:32:32.167Z,859.99
2023-08-23T11:33:32.124Z,860.03
2023-08-23T11:34:32.110Z,859.94
2023-08-23T11:35:32.117Z,859.95
2023-08-23T11:36:32.090Z,859.98
2023-08-23T11:37:32.092Z,859.91
2023-08-23T11:38:32.095Z,859.88
2023-08-23T11:39:32.059Z,859.92
2023-08-23T11:40:32.047Z,859.89
2023-08-23T11:41:32.044Z,859.85
2023-08-23T11:42:32.041Z,859.92
2023-08-23T11:43:32.014Z,859.94
2023-08-23T11:44:32.019Z,859.91
2023-08-23T11:45:32.014Z,859.96
2023-08-23T11:46:32.047Z,859.93
2023-08-23T11:47:31.999Z,859.96
2023-08-23T11:48:31.963Z,859.88
2023-08-23T11:49:31.976Z,859.88
2023-08-23T11:50:31.941Z,859.88
2023-08-23T11:51:31.931Z,859.89
2023-08-23T11:52:31.916Z,859.88
2023-08-23T11:53:31.906Z,859.90
2023-08-23T11:54:31.949Z,859.90
2023-08-23T11:55:31.911Z,859.86
2023-08-23T11:56:31.907Z,859.85
2023-08-23T11:57:31.865Z,859.84
2023-08-23T11:58:31.909Z,859.78
2023-08-23T11:59:31.858Z,859.82
2023-08-23T12:00:31.902Z,859.81
2023-08-23T12:01:31.898Z,859.83
2023-08-23T12:02:31.925Z,859.87
2023-08-23T12:03:31.891Z,859.89
2023-08-23T12:04:31.792Z,859.92
2023-08-23T12:05:31.795Z,859.97
2023-08-23T12:06:31.774Z,859.95
2023-08-23T12:07:31.773Z,859.97
2023-08-23T12:08:31.744Z,859.89
2023-08-23T12:09:31.737Z,859.87
2023-08-23T12:10:31.784Z,859.90
2023-08-23T12:11:31.722Z,859.87
2023-08-23T12:12:31.710Z,859.90
2023-08-23T12:13:31.721Z,859.83
2023-08-23T12:14:31.679Z,859.83
2023-08-23T12:15:31.676Z,859.82
2023-08-23T12:16:31.693Z,859.82
2023-08-23T12:17:31.659Z,859.83
2023-08-23T12:18:31.660Z,859.80
2023-08-23T12:19:32.213Z,859.81
2023-08-23T12:20:31.627Z,859.80
2023-08-23T12:21:31.598Z,859.81
2023-08-23T12:22:31.587Z,859.82
2023-08-23T12:23:31.724Z,859.84
2023-08-23T12:24:31.565Z,859.85
2023-08-23T12:25:32.592Z,859.86
2023-08-23T12:26:31.589Z,859.86
2023-08-23T12:27:31.546Z,859.88
2023-08-23T12:28:31.525Z,859.86
2023-08-23T12:29:31.515Z,859.82